Main page
METAR-TAF:

METAR-TAF

Airports :

Pelotas International Airport

Pelotas, Rio Grande do Sul, Brazil

latitude: 31-52S, longitude: 052-21W, elevation: 13 m

Current weather observation

The report was made 23 minutes ago, at 15:00 UTC
Wind 16 kt from the West/Southwest
Temperature 21°C
Humidity 60%
Pressure 1012 hPa
Visibility 10 km or more
Few clouds at a height of 2500 ft
Broken clouds at a height of 5000 ft

METAR: SBPK 181500Z 24016KT 9999 FEW025 BKN050 21/13 Q1012

Time: 13:23 (15:23 UTC)

Forecast

The report was made 7 hours and 8 minutes ago, at 08:15 UTC
Forecast valid from 18 at 12 UTC to 19 at 12 UTC
Wind 10 kt from the Southwest
Visibility 10 km or more
Broken clouds at a height of 1500 ft
Becoming
from 18 at 13 UTC to 18 at 15 UTC
Scattered clouds at a height of 3000 ft
Becoming
from 18 at 20 UTC to 18 at 22 UTC
Visibility 10 km or more
no clouds below 1500 m and no cumulonimbus

TAF: SBPK 180815Z 1812/1912 22010KT 9999 BKN015 TX25/1816Z TN12/1908Z BECMG 1813/1815 SCT030 BECMG 1820/1822 CAVOK RMK PDW

Weather observations and forecasts of more than 4000 airports (METAR and TAF reports).

The available stations are represented by yellow and red dots on the map.

Hover mouse over dot to see the name of the station.

Then click to see weather observations and forecasts.

To change the map : click on the green buttons with a black cross to zoom in, on the green button with a dash to zoom out, or on the green arrows for adjacent maps.


METAR-TAF: